createdAt,value
2018-06-13T00:00:38.507Z,16.5
2018-06-13T00:01:38.482Z,16.5
2018-06-13T00:02:38.545Z,16.46
2018-06-13T00:03:38.736Z,16.41
2018-06-13T00:04:38.823Z,16.42
2018-06-13T00:05:38.524Z,16.38
2018-06-13T00:06:38.755Z,16.38
2018-06-13T00:07:38.495Z,16.38
2018-06-13T00:08:38.238Z,16.42
2018-06-13T00:09:38.528Z,16.39
2018-06-13T00:10:38.880Z,16.43
2018-06-13T00:11:38.486Z,16.46
2018-06-13T00:12:38.475Z,16.42
2018-06-13T00:13:38.494Z,16.43
2018-06-13T00:14:38.487Z,16.47
2018-06-13T00:15:38.495Z,16.39
2018-06-13T00:16:38.478Z,16.39
2018-06-13T00:17:38.494Z,16.35
2018-06-13T00:18:38.241Z,16.31
2018-06-13T00:19:38.741Z,16.36
2018-06-13T00:20:38.243Z,16.26
2018-06-13T00:21:38.245Z,16.35
2018-06-13T00:22:38.480Z,16.28
2018-06-13T00:23:38.478Z,16.24
2018-06-13T00:24:38.522Z,16.26
2018-06-13T00:25:38.476Z,16.31
2018-06-13T00:26:38.419Z,16.17
2018-06-13T00:27:38.777Z,16.16
2018-06-13T00:28:38.747Z,16.23
2018-06-13T00:29:38.739Z,16.12
2018-06-13T00:30:38.479Z,16.17
2018-06-13T00:31:38.493Z,16.1
2018-06-13T00:32:38.491Z,16.16
2018-06-13T00:33:38.474Z,16.15
2018-06-13T00:34:38.221Z,16.24
2018-06-13T00:35:38.490Z,16.23
2018-06-13T00:36:38.528Z,16.16
2018-06-13T00:37:38.475Z,16.17
2018-06-13T00:38:38.210Z,16.16
2018-06-13T00:39:38.219Z,16.31
2018-06-13T00:40:38.736Z,16.17
2018-06-13T00:41:38.212Z,16.16
2018-06-13T00:42:38.739Z,16.32
2018-06-13T00:43:38.733Z,16.24
2018-06-13T00:44:38.471Z,16.16
2018-06-13T00:45:38.728Z,16.24
2018-06-13T00:46:38.731Z,16.24
2018-06-13T00:47:38.478Z,16.32
2018-06-13T00:48:38.214Z,16.28
2018-06-13T00:49:38.730Z,16.24
2018-06-13T00:50:38.207Z,16.2
2018-06-13T00:51:38.210Z,16.2
2018-06-13T00:52:38.477Z,16.17
2018-06-13T00:53:38.237Z,16.1
2018-06-13T00:54:38.471Z,16.16
2018-06-13T00:55:38.725Z,16.05
2018-06-13T00:56:39.758Z,16.1
2018-06-13T00:57:38.831Z,16.12
2018-06-13T00:58:38.465Z,16.15
2018-06-13T00:59:38.471Z,16.16
2018-06-13T01:00:38.474Z,16.09
2018-06-13T01:01:38.234Z,16.1
2018-06-13T01:02:38.766Z,16.09
2018-06-13T01:03:38.464Z,16.05
2018-06-13T01:04:38.479Z,15.98
2018-06-13T01:05:39.035Z,16
2018-06-13T01:06:38.497Z,15.92
2018-06-13T01:07:38.464Z,15.95
2018-06-13T01:08:38.485Z,15.9
2018-06-13T01:09:38.467Z,15.98
2018-06-13T01:10:38.483Z,15.9
2018-06-13T01:11:38.461Z,15.83
2018-06-13T01:12:38.718Z,15.94
2018-06-13T01:13:38.489Z,15.84
2018-06-13T01:14:38.459Z,15.8
2018-06-13T01:15:38.814Z,15.84
2018-06-13T01:16:38.463Z,15.83
2018-06-13T01:17:38.192Z,15.8
2018-06-13T01:18:38.211Z,15.8
2018-06-13T01:19:38.464Z,15.8
2018-06-13T01:20:38.475Z,15.79
2018-06-13T01:21:38.483Z,15.75
2018-06-13T01:22:38.716Z,15.76
2018-06-13T01:23:38.726Z,15.72
2018-06-13T01:24:38.218Z,15.79
2018-06-13T01:25:38.715Z,15.76
2018-06-13T01:26:38.729Z,15.84
2018-06-13T01:27:38.727Z,15.83
2018-06-13T01:28:38.727Z,15.86
2018-06-13T01:29:38.491Z,15.86
2018-06-13T01:30:38.785Z,15.91
2018-06-13T01:31:38.834Z,15.86
2018-06-13T01:32:38.713Z,15.83
2018-06-13T01:33:38.460Z,15.8
2018-06-13T01:34:38.710Z,15.83
2018-06-13T01:35:38.464Z,15.72
2018-06-13T01:36:38.710Z,15.83
2018-06-13T01:37:38.457Z,15.82
2018-06-13T01:38:38.452Z,15.75
2018-06-13T01:39:38.714Z,15.76
2018-06-13T01:40:38.195Z,15.83
2018-06-13T01:41:38.444Z,15.75
2018-06-13T01:42:38.454Z,15.75
2018-06-13T01:43:38.454Z,15.68
2018-06-13T01:44:38.449Z,15.68
2018-06-13T01:45:38.455Z,15.76
2018-06-13T01:46:38.452Z,15.67
2018-06-13T01:47:38.726Z,15.61
2018-06-13T01:48:38.716Z,15.68
2018-06-13T01:49:38.713Z,15.67
2018-06-13T01:50:38.437Z,15.61
2018-06-13T01:51:38.199Z,15.65
2018-06-13T01:52:38.441Z,15.65
2018-06-13T01:53:38.711Z,15.62
2018-06-13T01:54:38.436Z,15.64
2018-06-13T01:55:38.711Z,15.64
2018-06-13T01:56:38.441Z,15.64
2018-06-13T01:57:38.687Z,15.51
2018-06-13T01:58:38.445Z,15.61
2018-06-13T01:59:38.451Z,15.52
2018-06-13T02:00:38.706Z,15.54
2018-06-13T02:01:38.574Z,15.55
2018-06-13T02:02:38.178Z,15.47
2018-06-13T02:03:38.431Z,15.43
2018-06-13T02:04:38.179Z,15.47
2018-06-13T02:05:38.178Z,15.49
2018-06-13T02:06:38.436Z,15.43
2018-06-13T02:07:38.697Z,15.46
2018-06-13T02:08:38.690Z,15.47
2018-06-13T02:09:38.430Z,15.39
2018-06-13T02:10:38.690Z,15.35
2018-06-13T02:11:38.230Z,15.36
2018-06-13T02:12:38.732Z,15.37
2018-06-13T02:13:38.722Z,15.4
2018-06-13T02:14:38.677Z,15.29
2018-06-13T02:15:38.424Z,15.37
2018-06-13T02:16:38.435Z,15.36
2018-06-13T02:17:38.164Z,15.27
2018-06-13T02:18:38.178Z,15.21
2018-06-13T02:19:38.448Z,15.31
2018-06-13T02:20:38.433Z,15.29
2018-06-13T02:21:38.222Z,15.25
2018-06-13T02:22:38.674Z,15.28
2018-06-13T02:23:38.166Z,15.25
2018-06-13T02:24:38.437Z,15.33
2018-06-13T02:25:38.732Z,15.28
2018-06-13T02:26:38.479Z,15.19
2018-06-13T02:27:38.677Z,15.21
2018-06-13T02:28:38.673Z,15.21
2018-06-13T02:29:38.420Z,15.21
2018-06-13T02:30:38.681Z,15.19
2018-06-13T02:31:38.742Z,15.14
2018-06-13T02:32:38.735Z,15.14
2018-06-13T02:33:38.424Z,15
2018-06-13T02:34:38.443Z,14.96
2018-06-13T02:35:38.421Z,15.09
2018-06-13T02:36:38.411Z,14.97
2018-06-13T02:37:38.686Z,14.96
2018-06-13T02:38:38.673Z,15.02
2018-06-13T02:39:38.151Z,14.89
2018-06-13T02:40:38.690Z,14.92
2018-06-13T02:41:38.410Z,14.92
2018-06-13T02:42:38.663Z,14.85
2018-06-13T02:43:38.403Z,14.82
2018-06-13T02:44:38.397Z,14.86
2018-06-13T02:45:38.658Z,14.88
2018-06-13T02:46:38.652Z,14.86
2018-06-13T02:47:38.656Z,14.86
2018-06-13T02:48:38.667Z,14.88
2018-06-13T02:49:38.426Z,14.86
2018-06-13T02:50:38.436Z,14.94
2018-06-13T02:51:38.653Z,14.89
2018-06-13T02:52:38.408Z,14.78
2018-06-13T02:53:38.158Z,14.85
2018-06-13T02:54:38.417Z,14.82
2018-06-13T02:55:38.397Z,14.79
2018-06-13T02:56:38.672Z,14.85
2018-06-13T02:57:39.448Z,14.81
2018-06-13T02:58:38.390Z,14.84
2018-06-13T02:59:38.694Z,14.79
2018-06-13T03:00:38.384Z,14.68
2018-06-13T03:01:38.377Z,14.69
2018-06-13T03:02:38.643Z,14.68
2018-06-13T03:03:38.383Z,14.63
2018-06-13T03:04:38.381Z,14.68
2018-06-13T03:05:38.381Z,14.68
2018-06-13T03:06:38.375Z,14.62
2018-06-13T03:07:38.644Z,14.7
2018-06-13T03:08:38.637Z,14.63
2018-06-13T03:09:38.636Z,14.63
2018-06-13T03:10:38.627Z,14.58
2018-06-13T03:11:38.636Z,14.62
2018-06-13T03:12:38.427Z,14.6
2018-06-13T03:13:38.627Z,14.69
2018-06-13T03:14:38.378Z,14.68
2018-06-13T03:15:38.619Z,14.7
2018-06-13T03:16:38.635Z,14.65
2018-06-13T03:17:38.361Z,14.63
2018-06-13T03:18:38.372Z,14.78
2018-06-13T03:19:38.612Z,14.73
2018-06-13T03:20:38.624Z,14.78
2018-06-13T03:21:38.388Z,14.7
2018-06-13T03:22:38.353Z,14.69
2018-06-13T03:23:38.668Z,14.81
2018-06-13T03:24:38.353Z,14.89
2018-06-13T03:25:38.608Z,14.89
2018-06-13T03:26:38.096Z,14.88
2018-06-13T03:27:39.165Z,14.96
2018-06-13T03:28:38.354Z,14.94
2018-06-13T03:29:38.611Z,14.99
2018-06-13T03:30:38.638Z,14.97
2018-06-13T03:31:38.712Z,15
2018-06-13T03:32:38.345Z,14.96
2018-06-13T03:33:38.613Z,15.04
2018-06-13T03:34:38.344Z,14.99
2018-06-13T03:35:38.615Z,14.96
2018-06-13T03:36:38.618Z,15.03
2018-06-13T03:37:38.603Z,15
2018-06-13T03:38:38.592Z,14.89
2018-06-13T03:39:38.616Z,14.99
2018-06-13T03:40:38.590Z,15
2018-06-13T03:41:38.603Z,15.04
2018-06-13T03:42:38.337Z,14.97
2018-06-13T03:43:38.596Z,14.94
2018-06-13T03:44:38.357Z,15.03
2018-06-13T03:45:38.334Z,15
2018-06-13T03:46:38.338Z,14.96
2018-06-13T03:47:38.331Z,14.96
2018-06-13T03:48:38.319Z,15.09
2018-06-13T03:49:38.589Z,14.97
2018-06-13T03:50:38.597Z,15.03
2018-06-13T03:51:38.589Z,15.03
2018-06-13T03:52:38.592Z,15.09
2018-06-13T03:53:38.580Z,15.11
2018-06-13T03:54:38.598Z,15.18
2018-06-13T03:55:38.340Z,15.11
2018-06-13T03:56:38.322Z,15.15
2018-06-13T03:57:38.083Z,15.15
2018-06-13T03:58:38.321Z,15.18
2018-06-13T03:59:38.605Z,15.18
2018-06-13T04:00:38.339Z,15.15
2018-06-13T04:01:38.062Z,15.11
2018-06-13T04:02:38.317Z,15.18
2018-06-13T04:03:38.583Z,15.11
2018-06-13T04:04:38.322Z,15.07
2018-06-13T04:05:38.572Z,15.15
2018-06-13T04:06:38.310Z,15.19
2018-06-13T04:07:38.576Z,15.19
2018-06-13T04:08:38.570Z,15.11
2018-06-13T04:09:38.309Z,15.18
2018-06-13T04:10:38.587Z,15.14
2018-06-13T04:11:38.569Z,15.11
2018-06-13T04:12:38.315Z,15.18
2018-06-13T04:13:38.655Z,15.18
2018-06-13T04:14:38.563Z,15.25
2018-06-13T04:15:38.563Z,15.18
2018-06-13T04:16:38.569Z,15.25
2018-06-13T04:17:38.286Z,15.22
2018-06-13T04:18:38.574Z,15.21
2018-06-13T04:19:38.301Z,15.21
2018-06-13T04:20:38.559Z,15.19
2018-06-13T04:21:38.293Z,15.28
2018-06-13T04:22:38.296Z,15.25
2018-06-13T04:23:38.553Z,15.25
2018-06-13T04:24:38.300Z,15.29
2018-06-13T04:25:38.555Z,15.31
2018-06-13T04:26:38.559Z,15.24
2018-06-13T04:27:38.303Z,15.29
2018-06-13T04:28:40.159Z,15.29
2018-06-13T04:29:38.335Z,15.31
2018-06-13T04:30:38.568Z,15.31
2018-06-13T04:31:38.321Z,15.25
2018-06-13T04:32:38.661Z,15.33
2018-06-13T04:33:38.029Z,15.25
2018-06-13T04:34:38.345Z,15.27
2018-06-13T04:35:38.565Z,15.31
2018-06-13T04:36:38.595Z,15.28
2018-06-13T04:37:38.308Z,15.35
2018-06-13T04:38:38.290Z,15.27
2018-06-13T04:39:38.546Z,15.33
2018-06-13T04:40:38.281Z,15.31
2018-06-13T04:41:38.553Z,15.27
2018-06-13T04:42:38.556Z,15.21
2018-06-13T04:43:38.284Z,15.36
2018-06-13T04:44:38.300Z,15.36
2018-06-13T04:45:38.282Z,15.42
2018-06-13T04:46:38.012Z,15.35
2018-06-13T04:47:38.533Z,15.33
2018-06-13T04:48:38.282Z,15.37
2018-06-13T04:49:38.280Z,15.42
2018-06-13T04:50:38.298Z,15.46
2018-06-13T04:51:38.526Z,15.47
2018-06-13T04:52:38.524Z,15.51
2018-06-13T04:53:38.531Z,15.55
2018-06-13T04:54:38.532Z,15.54
2018-06-13T04:55:38.012Z,15.44
2018-06-13T04:56:38.343Z,15.51
2018-06-13T04:57:38.540Z,15.54
2018-06-13T04:58:38.282Z,15.51
2018-06-13T04:59:38.010Z,15.55
2018-06-13T05:00:38.287Z,15.52
2018-06-13T05:01:38.281Z,15.54
2018-06-13T05:02:40.475Z,15.57
2018-06-13T05:03:39.068Z,15.51
2018-06-13T05:04:38.525Z,15.52
2018-06-13T05:05:38.526Z,15.55
2018-06-13T05:06:38.258Z,15.42
2018-06-13T05:07:38.528Z,15.49
2018-06-13T05:08:38.523Z,15.55
2018-06-13T05:09:38.279Z,15.47
2018-06-13T05:10:38.523Z,15.47
2018-06-13T05:11:38.329Z,15.4
2018-06-13T05:12:38.518Z,15.46
2018-06-13T05:13:38.535Z,15.47
2018-06-13T05:14:38.260Z,15.43
2018-06-13T05:15:38.289Z,15.46
2018-06-13T05:16:38.600Z,15.42
2018-06-13T05:17:38.258Z,15.49
2018-06-13T05:18:38.532Z,15.47
2018-06-13T05:19:38.519Z,15.58
2018-06-13T05:20:38.256Z,15.61
2018-06-13T05:21:38.257Z,15.61
2018-06-13T05:22:38.258Z,15.62
2018-06-13T05:23:38.290Z,15.52
2018-06-13T05:24:38.511Z,15.58
2018-06-13T05:25:38.541Z,15.57
2018-06-13T05:26:38.513Z,15.44
2018-06-13T05:27:38.503Z,15.47
2018-06-13T05:28:38.595Z,15.42
2018-06-13T05:29:38.241Z,15.44
2018-06-13T05:30:38.248Z,15.39
2018-06-13T05:31:38.246Z,15.39
2018-06-13T05:32:38.247Z,15.43
2018-06-13T05:33:38.503Z,15.46
2018-06-13T05:34:37.987Z,15.44
2018-06-13T05:35:38.242Z,15.49
2018-06-13T05:36:38.500Z,15.52
2018-06-13T05:37:38.242Z,15.36
2018-06-13T05:38:38.493Z,15.37
2018-06-13T05:39:38.250Z,15.37
2018-06-13T05:40:38.239Z,15.43
2018-06-13T05:41:38.498Z,15.46
2018-06-13T05:42:38.244Z,15.39
2018-06-13T05:43:38.501Z,15.43
2018-06-13T05:44:38.495Z,15.42
2018-06-13T05:45:38.498Z,15.42
2018-06-13T05:46:38.225Z,15.47
2018-06-13T05:47:38.483Z,15.61
2018-06-13T05:48:38.479Z,15.58
2018-06-13T05:49:37.970Z,15.68
2018-06-13T05:50:37.967Z,15.59
2018-06-13T05:51:38.227Z,15.64
2018-06-13T05:52:38.244Z,15.62
2018-06-13T05:53:38.225Z,15.65
2018-06-13T05:54:37.967Z,15.68
2018-06-13T05:55:38.493Z,15.62
2018-06-13T05:56:38.487Z,15.58
2018-06-13T05:57:38.226Z,15.61
2018-06-13T05:58:38.231Z,15.59
2018-06-13T05:59:40.136Z,15.65
2018-06-13T06:00:38.224Z,15.61
2018-06-13T06:01:38.223Z,15.57
2018-06-13T06:02:38.500Z,15.55
2018-06-13T06:03:38.483Z,15.4
2018-06-13T06:04:38.479Z,15.44
2018-06-13T06:05:37.973Z,15.49
2018-06-13T06:06:38.491Z,15.42
2018-06-13T06:07:38.219Z,15.51
2018-06-13T06:08:38.228Z,15.51
2018-06-13T06:09:38.470Z,15.52
2018-06-13T06:10:37.974Z,15.42
2018-06-13T06:11:38.475Z,15.46
2018-06-13T06:12:38.232Z,15.51
2018-06-13T06:13:38.235Z,15.47
2018-06-13T06:14:38.480Z,15.55
2018-06-13T06:15:38.238Z,15.58
2018-06-13T06:16:37.975Z,15.58
2018-06-13T06:17:38.475Z,15.65
2018-06-13T06:18:38.491Z,15.62
2018-06-13T06:19:38.474Z,15.75
2018-06-13T06:20:38.487Z,15.65
2018-06-13T06:21:38.494Z,15.75
2018-06-13T06:22:38.472Z,15.77
2018-06-13T06:23:38.337Z,15.75
2018-06-13T06:24:38.209Z,15.79
2018-06-13T06:25:38.222Z,15.8
2018-06-13T06:26:38.211Z,15.8
2018-06-13T06:27:38.485Z,15.75
2018-06-13T06:28:38.506Z,15.75
2018-06-13T06:29:38.726Z,15.8
2018-06-13T06:30:38.223Z,15.82
2018-06-13T06:31:38.205Z,15.9
2018-06-13T06:32:38.226Z,15.84
2018-06-13T06:33:38.471Z,15.86
2018-06-13T06:34:39.032Z,15.86
2018-06-13T06:35:38.469Z,15.9
2018-06-13T06:36:38.223Z,15.83
2018-06-13T06:37:38.469Z,15.84
2018-06-13T06:38:37.953Z,15.8
2018-06-13T06:39:38.467Z,15.82
2018-06-13T06:40:38.465Z,15.79
2018-06-13T06:41:38.466Z,15.8
2018-06-13T06:42:37.946Z,15.88
2018-06-13T06:43:37.956Z,15.84
2018-06-13T06:44:38.261Z,15.76
2018-06-13T06:45:38.203Z,15.76
2018-06-13T06:46:38.464Z,15.76
2018-06-13T06:47:38.511Z,15.72
2018-06-13T06:48:38.206Z,15.76
2018-06-13T06:49:37.986Z,15.79
2018-06-13T06:50:38.202Z,15.82
2018-06-13T06:51:38.466Z,15.8
2018-06-13T06:52:38.485Z,15.73
2018-06-13T06:53:38.451Z,15.82
2018-06-13T06:54:37.955Z,15.84
2018-06-13T06:55:38.860Z,15.98
2018-06-13T06:56:38.072Z,16.05
2018-06-13T06:57:38.244Z,16.04
2018-06-13T06:58:38.444Z,16.09
2018-06-13T06:59:38.198Z,16.17
2018-06-13T07:00:38.189Z,16.28
2018-06-13T07:01:38.252Z,16.35
2018-06-13T07:02:37.979Z,16.38
2018-06-13T07:03:38.230Z,16.43
2018-06-13T07:04:38.217Z,16.46
2018-06-13T07:05:38.466Z,16.46
2018-06-13T07:06:38.195Z,16.36
2018-06-13T07:07:38.460Z,16.39
2018-06-13T07:08:38.205Z,16.43
2018-06-13T07:09:37.946Z,16.38
2018-06-13T07:10:38.199Z,16.33
2018-06-13T07:11:37.939Z,16.36
2018-06-13T07:12:38.207Z,16.53
2018-06-13T07:13:38.233Z,16.5
2018-06-13T07:14:37.941Z,16.64
2018-06-13T07:15:37.966Z,16.6
2018-06-13T07:16:38.459Z,16.72
2018-06-13T07:17:38.203Z,16.66
2018-06-13T07:18:38.460Z,16.66
2018-06-13T07:19:38.213Z,16.69
2018-06-13T07:20:38.190Z,16.71
2018-06-13T07:21:38.217Z,16.76
2018-06-13T07:22:38.444Z,16.83
2018-06-13T07:23:38.215Z,16.99
2018-06-13T07:24:38.528Z,16.94
2018-06-13T07:25:38.223Z,17.04
2018-06-13T07:26:37.946Z,17.14
2018-06-13T07:27:37.946Z,17.14
2018-06-13T07:28:38.199Z,17.24
2018-06-13T07:29:38.216Z,17.2
2018-06-13T07:30:38.189Z,17.24
2018-06-13T07:31:37.963Z,17.16
2018-06-13T07:32:38.217Z,17.19
2018-06-13T07:33:38.015Z,17.2
2018-06-13T07:34:38.497Z,17.24
2018-06-13T07:35:38.220Z,17.15
2018-06-13T07:36:38.253Z,17.15
2018-06-13T07:37:38.205Z,17.12
2018-06-13T07:38:38.194Z,17.05
2018-06-13T07:39:38.238Z,17.12
2018-06-13T07:40:38.213Z,17.2
2018-06-13T07:41:38.353Z,17.19
2018-06-13T07:42:38.480Z,17.34
2018-06-13T07:43:37.967Z,17.33
2018-06-13T07:44:38.206Z,17.41
2018-06-13T07:45:38.526Z,17.52
2018-06-13T07:46:37.967Z,17.51
2018-06-13T07:47:37.992Z,17.48
2018-06-13T07:48:38.477Z,17.51
2018-06-13T07:49:38.020Z,17.49
2018-06-13T07:50:38.473Z,17.63
2018-06-13T07:51:38.484Z,17.71
2018-06-13T07:52:38.216Z,17.83
2018-06-13T07:53:37.976Z,17.78
2018-06-13T07:54:38.005Z,17.86
2018-06-13T07:55:38.252Z,17.95
2018-06-13T07:56:38.229Z,18.03
2018-06-13T07:57:37.975Z,18.07
2018-06-13T07:58:38.475Z,18.03
2018-06-13T07:59:38.043Z,18.07
2018-06-13T08:00:39.539Z,18.08
2018-06-13T08:01:38.485Z,18.04
2018-06-13T08:02:38.484Z,18.03
2018-06-13T08:03:38.245Z,17.92
2018-06-13T08:04:38.247Z,17.94
2018-06-13T08:05:38.376Z,17.89
2018-06-13T08:06:38.232Z,17.95
2018-06-13T08:07:37.985Z,17.74
2018-06-13T08:08:38.069Z,17.67
2018-06-13T08:09:38.264Z,17.64
2018-06-13T08:10:38.498Z,17.63
2018-06-13T08:11:38.492Z,17.48
2018-06-13T08:12:38.510Z,17.49
2018-06-13T08:13:38.495Z,17.51
2018-06-13T08:14:38.003Z,17.48
2018-06-13T08:15:38.504Z,17.51
2018-06-13T08:16:38.252Z,17.51
2018-06-13T08:17:38.253Z,17.65
2018-06-13T08:18:38.499Z,17.6
2018-06-13T08:19:38.513Z,17.63
2018-06-13T08:20:38.258Z,17.68
2018-06-13T08:21:38.516Z,17.63
2018-06-13T08:22:38.258Z,17.57
2018-06-13T08:23:38.267Z,17.51
2018-06-13T08:24:38.519Z,17.49
2018-06-13T08:25:38.003Z,17.45
2018-06-13T08:26:38.258Z,17.49
2018-06-13T08:27:38.261Z,17.33
2018-06-13T08:28:38.513Z,17.42
2018-06-13T08:29:38.270Z,17.36
2018-06-13T08:30:38.267Z,17.31
2018-06-13T08:31:38.261Z,17.31
2018-06-13T08:32:38.261Z,17.31
2018-06-13T08:33:38.279Z,17.19
2018-06-13T08:34:38.010Z,17.08
2018-06-13T08:35:38.282Z,16.93
2018-06-13T08:36:38.527Z,16.94
2018-06-13T08:37:38.293Z,16.94
2018-06-13T08:38:38.543Z,16.97
2018-06-13T08:39:38.517Z,16.91
2018-06-13T08:40:38.525Z,16.97
2018-06-13T08:41:38.017Z,16.96
2018-06-13T08:42:38.276Z,16.96
2018-06-13T08:43:38.554Z,16.87
2018-06-13T08:44:38.286Z,16.89
2018-06-13T08:45:38.267Z,16.89
2018-06-13T08:46:38.608Z,16.9
2018-06-13T08:47:38.537Z,16.9
2018-06-13T08:48:38.076Z,16.83
2018-06-13T08:49:38.530Z,16.96
2018-06-13T08:50:38.532Z,16.86
2018-06-13T08:51:38.007Z,16.89
2018-06-13T08:52:38.279Z,16.78
2018-06-13T08:53:38.276Z,16.86
2018-06-13T08:54:38.525Z,16.84
2018-06-13T08:55:38.552Z,16.81
2018-06-13T08:56:38.033Z,16.83
2018-06-13T08:57:38.531Z,16.87
2018-06-13T08:58:38.277Z,16.81
2018-06-13T08:59:38.534Z,16.9
2018-06-13T09:00:38.568Z,16.83
2018-06-13T09:01:38.276Z,16.72
2018-06-13T09:02:38.280Z,16.81
2018-06-13T09:03:38.006Z,16.76
2018-06-13T09:04:38.528Z,16.66
2018-06-13T09:05:38.289Z,16.65
2018-06-13T09:06:38.569Z,16.64
2018-06-13T09:07:38.271Z,16.54
2018-06-13T09:08:38.541Z,16.64
2018-06-13T09:09:38.527Z,16.58
2018-06-13T09:10:38.540Z,16.54
2018-06-13T09:11:38.633Z,16.56
2018-06-13T09:12:38.527Z,16.51
2018-06-13T09:13:38.532Z,16.65
2018-06-13T09:14:38.273Z,16.68
2018-06-13T09:15:38.296Z,16.72
2018-06-13T09:16:38.276Z,16.69
2018-06-13T09:17:38.270Z,16.72
2018-06-13T09:18:38.034Z,16.76
2018-06-13T09:19:38.532Z,16.86
2018-06-13T09:20:38.524Z,16.94
2018-06-13T09:21:38.272Z,16.91
2018-06-13T09:22:38.273Z,16.9
2018-06-13T09:23:38.543Z,16.87
2018-06-13T09:24:38.526Z,16.94
2018-06-13T09:25:38.025Z,17.01
2018-06-13T09:26:38.274Z,17.15
2018-06-13T09:27:38.274Z,17.31
2018-06-13T09:28:38.265Z,17.38
2018-06-13T09:29:38.614Z,17.45
2018-06-13T09:30:38.285Z,17.6
2018-06-13T09:31:38.116Z,17.6
2018-06-13T09:32:38.524Z,17.72
2018-06-13T09:33:38.535Z,17.85
2018-06-13T09:34:38.290Z,18
2018-06-13T09:35:38.275Z,18.04
2018-06-13T09:36:38.272Z,18.19
2018-06-13T09:37:38.561Z,18.1
2018-06-13T09:38:38.275Z,18.11
2018-06-13T09:39:38.032Z,18.28
2018-06-13T09:40:38.285Z,18.25
2018-06-13T09:41:38.285Z,18.29
2018-06-13T09:42:38.035Z,18.26
2018-06-13T09:43:38.304Z,18.26
2018-06-13T09:44:38.291Z,18.29
2018-06-13T09:45:38.276Z,18.26
2018-06-13T09:46:38.543Z,18.31
2018-06-13T09:47:38.537Z,18.29
2018-06-13T09:48:38.292Z,18.23
2018-06-13T09:49:38.310Z,18.18
2018-06-13T09:50:38.544Z,18.1
2018-06-13T09:51:38.549Z,18
2018-06-13T09:52:38.281Z,18.03
2018-06-13T09:53:38.549Z,18
2018-06-13T09:54:38.561Z,18.08
2018-06-13T09:55:38.312Z,18.03
2018-06-13T09:56:38.310Z,17.92
2018-06-13T09:57:38.300Z,17.97
2018-06-13T09:58:38.561Z,17.94
2018-06-13T09:59:38.312Z,17.76
2018-06-13T10:00:38.552Z,17.7
2018-06-13T10:01:38.669Z,17.76
2018-06-13T10:02:38.576Z,17.6
2018-06-13T10:03:38.055Z,17.65
2018-06-13T10:04:38.615Z,17.56
2018-06-13T10:05:38.059Z,17.51
2018-06-13T10:06:38.305Z,17.48
2018-06-13T10:07:38.575Z,17.56
2018-06-13T10:08:38.341Z,17.6
2018-06-13T10:09:38.323Z,17.67
2018-06-13T10:10:38.572Z,17.79
2018-06-13T10:11:38.582Z,17.92
2018-06-13T10:12:38.575Z,17.83
2018-06-13T10:13:38.318Z,17.78
2018-06-13T10:14:38.578Z,17.9
2018-06-13T10:15:38.326Z,17.82
2018-06-13T10:16:38.323Z,17.79
2018-06-13T10:17:38.583Z,17.74
2018-06-13T10:18:38.685Z,17.98
2018-06-13T10:19:38.317Z,17.92
2018-06-13T10:20:38.322Z,18.07
2018-06-13T10:21:38.582Z,18.01
2018-06-13T10:22:38.584Z,18.05
2018-06-13T10:53:30.976Z,17.24
2018-06-13T10:54:29.620Z,17.27
2018-06-13T10:55:29.895Z,17.38
2018-06-13T10:56:30.125Z,17.38
2018-06-13T10:57:29.837Z,17.45
2018-06-13T10:58:29.832Z,17.52
2018-06-13T10:59:29.838Z,17.59
2018-06-13T11:00:30.085Z,17.68
2018-06-13T11:01:29.606Z,17.72
2018-06-13T11:02:30.106Z,17.74
2018-06-13T11:03:29.833Z,17.71
2018-06-13T11:04:29.835Z,17.65
2018-06-13T11:05:30.138Z,17.71
2018-06-13T11:06:30.147Z,17.79
2018-06-13T11:07:29.577Z,17.95
2018-06-13T11:08:29.566Z,18.03
2018-06-13T11:09:29.826Z,18.18
2018-06-13T11:10:30.097Z,18.22
2018-06-13T11:11:29.935Z,18.35
2018-06-13T11:12:29.838Z,18.44
2018-06-13T11:13:29.833Z,18.43
2018-06-13T11:14:29.829Z,18.41
2018-06-13T11:15:29.570Z,18.59
2018-06-13T11:16:30.095Z,18.66
2018-06-13T11:17:30.102Z,18.88
2018-06-13T11:18:29.850Z,18.96
2018-06-13T11:19:30.114Z,18.92
2018-06-13T11:20:29.931Z,18.95
2018-06-13T11:21:29.875Z,18.88
2018-06-13T11:22:29.885Z,18.92
2018-06-13T11:23:29.850Z,18.92
2018-06-13T11:24:29.873Z,18.84
2018-06-13T11:25:30.117Z,18.92
2018-06-13T11:26:30.163Z,18.99
2018-06-13T11:27:29.874Z,19.07
2018-06-13T11:28:29.891Z,19.15
2018-06-13T11:29:29.886Z,19.26
2018-06-13T11:30:29.859Z,19.45
2018-06-13T11:31:29.956Z,19.74
2018-06-13T11:32:30.128Z,19.84
2018-06-13T11:33:29.878Z,19.81
2018-06-13T11:34:29.862Z,19.96
2018-06-13T11:35:29.894Z,20.02
2018-06-13T11:36:30.254Z,20.24
2018-06-13T11:37:30.144Z,20.26
2018-06-13T11:38:29.899Z,20.26
2018-06-13T11:39:29.622Z,20.28
2018-06-13T11:40:29.889Z,20.28
2018-06-13T11:41:30.461Z,20.26
2018-06-13T11:42:30.144Z,20.1
2018-06-13T11:43:29.920Z,20.1
2018-06-13T11:44:30.644Z,20
2018-06-13T11:45:29.665Z,20.02
2018-06-13T11:46:29.895Z,19.92
2018-06-13T11:47:29.648Z,19.85
2018-06-13T11:48:29.648Z,19.82
2018-06-13T11:49:29.988Z,19.88
2018-06-13T11:50:29.911Z,19.74
2018-06-13T11:51:29.664Z,19.51
2018-06-13T11:52:29.662Z,19.3
2018-06-13T11:53:29.977Z,19.36
2018-06-13T11:54:29.683Z,19.29
2018-06-13T11:55:29.929Z,19.29
2018-06-13T11:56:30.001Z,19.37
2018-06-13T11:57:30.198Z,19.37
2018-06-13T11:58:30.218Z,19.37
2018-06-13T11:59:29.960Z,19.36
2018-06-13T12:00:30.344Z,19.33
2018-06-13T12:01:29.742Z,19.3
2018-06-13T12:02:29.972Z,19.19
2018-06-13T12:03:29.955Z,19.18
2018-06-13T12:04:29.955Z,19.08
2018-06-13T12:05:29.965Z,19.21
2018-06-13T12:06:30.063Z,19.21
2018-06-13T12:07:29.720Z,19.31
2018-06-13T12:08:30.268Z,19.33
2018-06-13T12:09:30.242Z,19.39
2018-06-13T12:10:29.734Z,19.44
2018-06-13T12:11:30.395Z,19.41
2018-06-13T12:12:29.996Z,19.45
2018-06-13T12:13:30.241Z,19.52
2018-06-13T12:14:29.987Z,19.59
2018-06-13T12:15:29.729Z,19.76
2018-06-13T12:16:30.326Z,19.84
2018-06-13T12:17:29.987Z,19.95
2018-06-13T12:18:29.720Z,20.1
2018-06-13T12:19:29.992Z,20.04
2018-06-13T12:20:30.248Z,20.26
2018-06-13T12:21:30.265Z,20.41
2018-06-13T12:22:30.024Z,20.48
2018-06-13T12:23:30.311Z,20.43
2018-06-13T12:24:29.766Z,20.4
2018-06-13T12:25:30.008Z,19.92
2018-06-13T12:26:30.267Z,19.73
2018-06-13T12:27:30.275Z,19.4
2018-06-13T12:28:30.067Z,19.24
2018-06-13T12:29:30.029Z,19.11
2018-06-13T12:30:29.784Z,18.83
2018-06-13T12:31:30.010Z,18.6
2018-06-13T12:32:30.297Z,18.31
2018-06-13T12:33:30.035Z,18.16
2018-06-13T12:34:29.764Z,17.89
2018-06-13T12:35:30.026Z,17.68
2018-06-13T12:36:30.300Z,17.56
2018-06-13T12:37:30.285Z,17.39
2018-06-13T12:38:30.046Z,17.36
2018-06-13T12:39:30.048Z,17.22
2018-06-13T12:40:30.029Z,17.2
2018-06-13T12:41:30.035Z,17.14
2018-06-13T12:42:30.050Z,17.06
2018-06-13T12:43:29.807Z,17.04
2018-06-13T12:44:30.300Z,17.05
2018-06-13T12:45:30.117Z,17.02
2018-06-13T12:46:30.116Z,17.01
2018-06-13T12:47:30.041Z,17.05
2018-06-13T12:48:30.059Z,17.09
2018-06-13T12:49:30.569Z,17.05
2018-06-13T12:50:30.307Z,17.15
2018-06-13T12:51:30.054Z,17.14
2018-06-13T12:52:30.310Z,17.14
2018-06-13T12:53:29.792Z,17.2
2018-06-13T12:54:30.051Z,17.2
2018-06-13T12:55:30.349Z,17.29
2018-06-13T12:56:30.363Z,17.23
2018-06-13T12:57:30.052Z,17.27
2018-06-13T12:58:30.036Z,17.34
2018-06-13T12:59:29.797Z,17.38
2018-06-13T13:00:30.038Z,17.38
2018-06-13T13:01:30.369Z,17.45
2018-06-13T13:02:30.303Z,17.48
2018-06-13T13:03:29.786Z,17.63
2018-06-13T13:04:30.319Z,17.68
2018-06-13T13:05:30.311Z,17.74
2018-06-13T13:06:30.128Z,17.76
2018-06-13T13:07:30.306Z,17.8
2018-06-13T13:08:30.313Z,17.92
2018-06-13T13:09:30.323Z,17.87
2018-06-13T13:10:30.305Z,17.8
2018-06-13T13:11:29.810Z,17.76
2018-06-13T13:12:30.314Z,17.92
2018-06-13T13:13:29.794Z,17.97
2018-06-13T13:14:30.057Z,18.1
2018-06-13T13:15:30.312Z,18.15
2018-06-13T13:16:30.315Z,18.29
2018-06-13T13:17:30.063Z,18.44
2018-06-13T13:18:30.059Z,18.53
2018-06-13T13:19:30.055Z,18.58
2018-06-13T13:20:30.491Z,18.6
2018-06-13T13:21:30.096Z,18.62
2018-06-13T13:22:30.331Z,18.66
2018-06-13T13:23:30.332Z,18.74
2018-06-13T13:24:30.114Z,18.68
2018-06-13T13:25:30.409Z,18.83